sensor_id;sensor_type;location;lat;lon;timestamp;pressure;altitude;pressure_sealevel;temperature;humidity
4123;BME280;2075;51.062;6.920;2023-05-01T00:01:34;93893.88;;;-144.48;60.27
4123;BME280;2075;51.062;6.920;2023-05-01T00:04:19;93918.25;;;-144.48;60.48
4123;BME280;2075;51.062;6.920;2023-05-01T00:07:06;93847.13;;;-144.48;60.72
4123;BME280;2075;51.062;6.920;2023-05-01T00:09:52;93912.16;;;-144.48;60.51
4123;BME280;2075;51.062;6.920;2023-05-01T00:12:37;93875.59;;;-144.48;60.64
4123;BME280;2075;51.062;6.920;2023-05-01T00:15:23;93899.97;;;-144.48;60.40
4123;BME280;2075;51.062;6.920;2023-05-01T00:18:08;93843.06;;;-144.48;60.10
4123;BME280;2075;51.062;6.920;2023-05-01T00:20:54;93889.81;;;-144.48;60.41
4123;BME280;2075;51.062;6.920;2023-05-01T00:23:40;93879.66;;;-144.48;60.56
4123;BME280;2075;51.062;6.920;2023-05-01T00:26:26;93881.69;;;-144.48;60.72
4123;BME280;2075;51.062;6.920;2023-05-01T00:29:14;93893.88;;;-144.48;60.91
4123;BME280;2075;51.062;6.920;2023-05-01T00:32:00;93891.84;;;-144.48;60.85
4123;BME280;2075;51.062;6.920;2023-05-01T00:34:45;93897.94;;;-144.48;61.06
4123;BME280;2075;51.062;6.920;2023-05-01T00:37:31;93877.63;;;-144.48;60.33
4123;BME280;2075;51.062;6.920;2023-05-01T00:40:18;93895.91;;;-144.48;60.67
4123;BME280;2075;51.062;6.920;2023-05-01T00:43:04;93857.28;;;-144.48;60.14
4123;BME280;2075;51.062;6.920;2023-05-01T00:45:50;93904.03;;;-144.48;60.04
4123;BME280;2075;51.062;6.920;2023-05-01T00:48:35;93648.06;;;-144.48;60.14
4123;BME280;2075;51.062;6.920;2023-05-01T00:51:21;93879.66;;;-144.48;60.47
4123;BME280;2075;51.062;6.920;2023-05-01T00:54:07;93887.78;;;-144.48;60.68
4123;BME280;2075;51.062;6.920;2023-05-01T00:56:54;93851.22;;;-144.48;61.67
4123;BME280;2075;51.062;6.920;2023-05-01T00:59:41;93873.56;;;-144.48;61.54
4123;BME280;2075;51.062;6.920;2023-05-01T01:02:27;93851.22;;;-144.48;61.57
4123;BME280;2075;51.062;6.920;2023-05-01T01:05:12;93897.94;;;-144.48;61.83
4123;BME280;2075;51.062;6.920;2023-05-01T01:08:04;93893.88;;;-144.48;62.86
4123;BME280;2075;51.062;6.920;2023-05-01T01:11:00;93932.47;;;-144.48;63.72
4123;BME280;2075;51.062;6.920;2023-05-01T01:13:57;93912.16;;;-144.48;63.58
4123;BME280;2075;51.062;6.920;2023-05-01T01:16:47;93889.81;;;-144.48;64.53
4123;BME280;2075;51.062;6.920;2023-05-01T01:20:13;93893.88;;;-144.48;64.78
4123;BME280;2075;51.062;6.920;2023-05-01T01:23:18;93960.91;;;-144.48;65.75
4123;BME280;2075;51.062;6.920;2023-05-01T01:26:20;94023.88;;;-144.48;65.41
4123;BME280;2075;51.062;6.920;2023-05-01T01:29:38;93891.84;;;-144.48;64.81
4123;BME280;2075;51.062;6.920;2023-05-01T01:32:38;93692.75;;;-144.48;65.67
4123;BME280;2075;51.062;6.920;2023-05-01T01:35:35;93952.78;;;-144.48;66.78
4123;BME280;2075;51.062;6.920;2023-05-01T01:38:27;93946.69;;;-144.48;67.63
4123;BME280;2075;51.062;6.920;2023-05-01T01:41:18;93942.63;;;-144.48;68.66
4123;BME280;2075;51.062;6.920;2023-05-01T01:44:08;93881.69;;;-144.48;68.28
4123;BME280;2075;51.062;6.920;2023-05-01T01:46:58;93891.84;;;-144.48;69.24
4123;BME280;2075;51.062;6.920;2023-05-01T01:49:47;93912.16;;;-144.48;68.03
4123;BME280;2075;51.062;6.920;2023-05-01T01:52:37;93904.03;;;-144.48;68.71
4123;BME280;2075;51.062;6.920;2023-05-01T01:55:28;94200.63;;;-144.48;67.95
4123;BME280;2075;51.062;6.920;2023-05-01T01:58:15;93942.63;;;-144.48;68.68
4123;BME280;2075;51.062;6.920;2023-05-01T02:01:03;93948.72;;;-144.48;69.20
4123;BME280;2075;51.062;6.920;2023-05-01T02:03:50;93956.84;;;-144.48;69.13
4123;BME280;2075;51.062;6.920;2023-05-01T02:06:38;93916.22;;;-144.48;70.28
4123;BME280;2075;51.062;6.920;2023-05-01T02:09:28;93904.03;;;-144.48;70.09
4123;BME280;2075;51.062;6.920;2023-05-01T02:12:15;93938.56;;;-144.48;70.12
4123;BME280;2075;51.062;6.920;2023-05-01T02:15:01;93912.16;;;-144.48;70.95
4123;BME280;2075;51.062;6.920;2023-05-01T02:17:49;93908.09;;;-144.48;72.76
4123;BME280;2075;51.062;6.920;2023-05-01T02:20:36;93964.97;;;-144.48;72.90
4123;BME280;2075;51.062;6.920;2023-05-01T02:23:22;93934.50;;;-144.48;73.48
4123;BME280;2075;51.062;6.920;2023-05-01T02:26:12;93950.75;;;-144.48;72.96
4123;BME280;2075;51.062;6.920;2023-05-01T02:29:00;93855.25;;;-144.48;72.79
4123;BME280;2075;51.062;6.920;2023-05-01T02:31:45;93948.72;;;-144.48;72.23
4123;BME280;2075;51.062;6.920;2023-05-01T02:34:33;93944.66;;;-144.48;71.50
4123;BME280;2075;51.062;6.920;2023-05-01T02:37:19;93995.44;;;-144.48;72.25
4123;BME280;2075;51.062;6.920;2023-05-01T02:40:06;93916.22;;;-144.48;71.51
4123;BME280;2075;51.062;6.920;2023-05-01T02:42:54;93950.75;;;-144.48;70.17
4123;BME280;2075;51.062;6.920;2023-05-01T02:45:41;93973.09;;;-144.48;69.62
4123;BME280;2075;51.062;6.920;2023-05-01T02:48:29;93920.28;;;-144.48;70.03
4123;BME280;2075;51.062;6.920;2023-05-01T02:51:17;93977.16;;;-144.48;70.58
4123;BME280;2075;51.062;6.920;2023-05-01T02:54:03;93918.25;;;-144.48;71.59
4123;BME280;2075;51.062;6.920;2023-05-01T02:56:50;93993.41;;;-144.48;72.23
4123;BME280;2075;51.062;6.920;2023-05-01T02:59:38;93883.72;;;-144.48;71.65
4123;BME280;2075;51.062;6.920;2023-05-01T03:02:24;93946.69;;;-144.48;72.15
4123;BME280;2075;51.062;6.920;2023-05-01T03:05:10;93952.78;;;-144.48;73.28
4123;BME280;2075;51.062;6.920;2023-05-01T03:07:55;93928.41;;;-144.48;74.72
4123;BME280;2075;51.062;6.920;2023-05-01T03:10:40;93969.03;;;-144.48;72.71
4123;BME280;2075;51.062;6.920;2023-05-01T03:13:26;93983.25;;;-144.48;72.91
4123;BME280;2075;51.062;6.920;2023-05-01T03:16:13;93950.75;;;-144.48;72.99
4123;BME280;2075;51.062;6.920;2023-05-01T03:18:59;94001.53;;;-144.48;71.39
4123;BME280;2075;51.062;6.920;2023-05-01T03:21:44;94003.56;;;-144.48;71.75
4123;BME280;2075;51.062;6.920;2023-05-01T03:24:29;93981.22;;;-144.48;71.00
4123;BME280;2075;51.062;6.920;2023-05-01T03:27:15;93993.41;;;-144.48;70.91
4123;BME280;2075;51.062;6.920;2023-05-01T03:30:01;94032.00;;;-144.48;71.33
4123;BME280;2075;51.062;6.920;2023-05-01T03:32:51;93989.34;;;-144.48;71.70
4123;BME280;2075;51.062;6.920;2023-05-01T03:35:44;94011.69;;;-144.48;72.17
4123;BME280;2075;51.062;6.920;2023-05-01T03:38:30;94200.63;;;-144.48;72.97
4123;BME280;2075;51.062;6.920;2023-05-01T03:41:27;93981.22;;;-144.48;72.36
4123;BME280;2075;51.062;6.920;2023-05-01T03:44:36;94044.19;;;-144.48;71.58
4123;BME280;2075;51.062;6.920;2023-05-01T03:47:21;94021.84;;;-144.48;72.61
4123;BME280;2075;51.062;6.920;2023-05-01T03:50:09;94003.56;;;-144.48;72.35
4123;BME280;2075;51.062;6.920;2023-05-01T03:52:57;94027.94;;;-144.48;73.11
4123;BME280;2075;51.062;6.920;2023-05-01T03:55:43;94007.63;;;-144.48;74.56
4123;BME280;2075;51.062;6.920;2023-05-01T03:58:30;94023.88;;;-144.48;74.94
4123;BME280;2075;51.062;6.920;2023-05-01T04:01:16;94021.84;;;-144.48;75.63
4123;BME280;2075;51.062;6.920;2023-05-01T04:04:04;94021.84;;;-144.48;76.12
4123;BME280;2075;51.062;6.920;2023-05-01T04:06:52;94025.91;;;-144.48;74.73
4123;BME280;2075;51.062;6.920;2023-05-01T04:09:38;94046.22;;;-144.48;75.36
4123;BME280;2075;51.062;6.920;2023-05-01T04:12:23;94062.47;;;-144.48;75.71
4123;BME280;2075;51.062;6.920;2023-05-01T04:15:09;94062.47;;;-144.48;75.73
4123;BME280;2075;51.062;6.920;2023-05-01T04:17:55;94023.88;;;-144.48;75.58
4123;BME280;2075;51.062;6.920;2023-05-01T04:20:41;94046.22;;;-144.48;75.96
4123;BME280;2075;51.062;6.920;2023-05-01T04:23:27;94044.19;;;-144.48;74.73
4123;BME280;2075;51.062;6.920;2023-05-01T04:26:15;94086.84;;;-144.48;74.94
4123;BME280;2075;51.062;6.920;2023-05-01T04:29:02;94072.63;;;-144.48;74.75
4123;BME280;2075;51.062;6.920;2023-05-01T04:31:47;94072.63;;;-144.48;75.07
4123;BME280;2075;51.062;6.920;2023-05-01T04:34:33;94036.06;;;-144.48;75.10
4123;BME280;2075;51.062;6.920;2023-05-01T04:37:18;94066.53;;;-144.48;75.17
4123;BME280;2075;51.062;6.920;2023-05-01T04:40:06;94050.28;;;-144.48;75.12
4123;BME280;2075;51.062;6.920;2023-05-01T04:42:52;94147.81;;;-144.48;74.46
4123;BME280;2075;51.062;6.920;2023-05-01T04:45:38;94023.88;;;-144.48;73.54
4123;BME280;2075;51.062;6.920;2023-05-01T04:48:23;94206.72;;;-144.48;72.41
4123;BME280;2075;51.062;6.920;2023-05-01T04:51:09;93989.34;;;-144.48;71.69
4123;BME280;2075;51.062;6.920;2023-05-01T04:53:54;94001.53;;;-144.48;71.27
4123;BME280;2075;51.062;6.920;2023-05-01T04:56:44;93952.78;;;-144.48;71.06
4123;BME280;2075;51.062;6.920;2023-05-01T04:59:30;93981.22;;;-144.48;71.13
4123;BME280;2075;51.062;6.920;2023-05-01T05:02:15;93985.28;;;-144.48;71.17
4123;BME280;2075;51.062;6.920;2023-05-01T05:05:00;94046.22;;;-144.48;70.08
4123;BME280;2075;51.062;6.920;2023-05-01T05:07:46;93977.16;;;-144.48;69.47
4123;BME280;2075;51.062;6.920;2023-05-01T05:10:48;93985.28;;;-144.48;68.98
4123;BME280;2075;51.062;6.920;2023-05-01T05:13:43;94143.75;;;-144.48;68.67
4123;BME280;2075;51.062;6.920;2023-05-01T05:16:30;93956.84;;;-144.48;67.63
4123;BME280;2075;51.062;6.920;2023-05-01T05:19:15;93977.16;;;-144.48;67.03
4123;BME280;2075;51.062;6.920;2023-05-01T05:22:01;93932.47;;;-144.48;65.49
4123;BME280;2075;51.062;6.920;2023-05-01T05:24:52;93924.34;;;-144.48;64.11
4123;BME280;2075;51.062;6.920;2023-05-01T05:27:38;93926.38;;;-144.48;63.45
4123;BME280;2075;51.062;6.920;2023-05-01T05:30:25;93914.19;;;-144.48;63.09
4123;BME280;2075;51.062;6.920;2023-05-01T05:33:11;93906.06;;;-144.48;62.23
4123;BME280;2075;51.062;6.920;2023-05-01T05:35:57;94009.66;;;-144.48;61.86
4123;BME280;2075;51.062;6.920;2023-05-01T05:38:47;93895.91;;;-144.48;60.70
4123;BME280;2075;51.062;6.920;2023-05-01T05:41:35;93851.22;;;-144.48;60.25
4123;BME280;2075;51.062;6.920;2023-05-01T05:44:21;93836.97;;;-144.48;60.25
4123;BME280;2075;51.062;6.920;2023-05-01T05:47:10;93832.91;;;-144.48;59.70
4123;BME280;2075;51.062;6.920;2023-05-01T05:49:55;93816.66;;;-144.48;58.33
4123;BME280;2075;51.062;6.920;2023-05-01T05:52:41;93863.41;;;-144.48;59.20
4123;BME280;2075;51.062;6.920;2023-05-01T05:55:26;93867.47;;;-144.48;58.67
4123;BME280;2075;51.062;6.920;2023-05-01T05:58:22;93822.75;;;-144.48;58.09
4123;BME280;2075;51.062;6.920;2023-05-01T06:01:08;93816.66;;;-144.48;56.96
4123;BME280;2075;51.062;6.920;2023-05-01T06:03:58;93774.00;;;-144.48;57.00
4123;BME280;2075;51.062;6.920;2023-05-01T06:06:45;93863.41;;;-144.48;55.55
4123;BME280;2075;51.062;6.920;2023-05-01T06:09:32;93778.06;;;-144.48;55.01
4123;BME280;2075;51.062;6.920;2023-05-01T06:12:18;93711.03;;;-144.48;54.30
4123;BME280;2075;51.062;6.920;2023-05-01T06:15:04;93668.38;;;-144.48;52.85
4123;BME280;2075;51.062;6.920;2023-05-01T06:17:54;93609.47;;;-144.48;51.59
4123;BME280;2075;51.062;6.920;2023-05-01T06:20:42;93646.03;;;-144.48;51.30
4123;BME280;2075;51.062;6.920;2023-05-01T06:23:28;93619.63;;;-144.48;51.03
4123;BME280;2075;51.062;6.920;2023-05-01T06:26:31;93579.00;;;-144.48;50.11
4123;BME280;2075;51.062;6.920;2023-05-01T06:29:17;93605.41;;;-144.48;49.31
4123;BME280;2075;51.062;6.920;2023-05-01T06:32:02;93591.19;;;-144.48;47.97
4123;BME280;2075;51.062;6.920;2023-05-01T06:34:48;93536.34;;;-144.48;47.50
4123;BME280;2075;51.062;6.920;2023-05-01T06:37:34;93438.84;;;-144.48;45.13
4123;BME280;2075;51.062;6.920;2023-05-01T06:40:23;93434.78;;;-144.48;44.41
4123;BME280;2075;51.062;6.920;2023-05-01T06:43:08;93331.19;;;-144.48;43.44
4123;BME280;2075;51.062;6.920;2023-05-01T06:45:54;93182.94;;;-144.48;41.32
4123;BME280;2075;51.062;6.920;2023-05-01T06:48:39;92973.75;;;-144.48;38.94
4123;BME280;2075;51.062;6.920;2023-05-01T06:51:24;92965.63;;;-144.48;38.24
4123;BME280;2075;51.062;6.920;2023-05-01T06:54:11;93050.91;;;-144.48;39.14
4123;BME280;2075;51.062;6.920;2023-05-01T06:56:57;93231.69;;;-144.48;40.50
4123;BME280;2075;51.062;6.920;2023-05-01T06:59:42;93394.16;;;-144.48;42.13
4123;BME280;2075;51.062;6.920;2023-05-01T07:02:28;93396.19;;;-144.48;42.47
4123;BME280;2075;51.062;6.920;2023-05-01T07:05:13;93290.56;;;-144.48;42.93
4123;BME280;2075;51.062;6.920;2023-05-01T07:07:58;93268.25;;;-144.48;42.07
4123;BME280;2075;51.062;6.920;2023-05-01T07:10:45;93243.88;;;-144.48;41.70
4123;BME280;2075;51.062;6.920;2023-05-01T07:13:32;93107.78;;;-144.48;39.90
4123;BME280;2075;51.062;6.920;2023-05-01T07:16:18;93008.28;;;-144.48;38.66
4123;BME280;2075;51.062;6.920;2023-05-01T07:19:03;92992.03;;;-144.48;38.48
4123;BME280;2075;51.062;6.920;2023-05-01T07:21:49;93006.25;;;-144.48;38.42
4123;BME280;2075;51.062;6.920;2023-05-01T07:24:34;92990.00;;;-144.48;37.80
4123;BME280;2075;51.062;6.920;2023-05-01T07:27:21;93006.25;;;-144.48;38.21
4123;BME280;2075;51.062;6.920;2023-05-01T07:30:08;93034.66;;;-144.48;38.10
4123;BME280;2075;51.062;6.920;2023-05-01T07:32:53;93008.28;;;-144.48;38.13
4123;BME280;2075;51.062;6.920;2023-05-01T07:35:40;93079.34;;;-144.48;38.84
4123;BME280;2075;51.062;6.920;2023-05-01T07:38:26;93138.25;;;-144.48;39.24
4123;BME280;2075;51.062;6.920;2023-05-01T07:41:11;93067.16;;;-144.48;39.05
4123;BME280;2075;51.062;6.920;2023-05-01T07:43:58;93004.22;;;-144.48;38.21
4123;BME280;2075;51.062;6.920;2023-05-01T07:46:44;92929.06;;;-144.48;37.30
4123;BME280;2075;51.062;6.920;2023-05-01T07:49:34;92975.78;;;-144.48;37.33
4123;BME280;2075;51.062;6.920;2023-05-01T07:52:19;92933.13;;;-144.48;37.01
4123;BME280;2075;51.062;6.920;2023-05-01T07:55:06;92835.66;;;-144.48;36.53
4123;BME280;2075;51.062;6.920;2023-05-01T07:57:52;92784.88;;;-144.48;35.97
4123;BME280;2075;51.062;6.920;2023-05-01T08:00:38;92427.47;;;-144.48;33.40
4123;BME280;2075;51.062;6.920;2023-05-01T08:03:26;92252.84;;;-144.48;32.00
4123;BME280;2075;51.062;6.920;2023-05-01T08:06:12;92526.97;;;-144.48;33.45
4123;BME280;2075;51.062;6.920;2023-05-01T08:08:57;92569.63;;;-144.48;34.19
4123;BME280;2075;51.062;6.920;2023-05-01T08:11:43;92646.78;;;-144.48;34.32
4123;BME280;2075;51.062;6.920;2023-05-01T08:14:28;92922.97;;;-144.48;35.84
4123;BME280;2075;51.062;6.920;2023-05-01T08:17:15;93020.44;;;-144.48;37.18
4123;BME280;2075;51.062;6.920;2023-05-01T08:20:01;92951.41;;;-144.48;36.68
4123;BME280;2075;51.062;6.920;2023-05-01T08:22:46;92896.56;;;-144.48;36.32
4123;BME280;2075;51.062;6.920;2023-05-01T08:25:32;92992.03;;;-144.48;37.13
4123;BME280;2075;51.062;6.920;2023-05-01T08:28:18;92935.16;;;-144.48;36.86
4123;BME280;2075;51.062;6.920;2023-05-01T08:31:04;92874.22;;;-144.48;36.76
4123;BME280;2075;51.062;6.920;2023-05-01T08:33:51;92833.63;;;-144.48;36.18
4123;BME280;2075;51.062;6.920;2023-05-01T08:36:36;92780.81;;;-144.48;35.74
4123;BME280;2075;51.062;6.920;2023-05-01T08:39:22;92835.66;;;-144.48;35.87
4123;BME280;2075;51.062;6.920;2023-05-01T08:42:07;92709.75;;;-144.48;35.55
4123;BME280;2075;51.062;6.920;2023-05-01T08:44:55;92709.75;;;-144.48;35.75
4123;BME280;2075;51.062;6.920;2023-05-01T08:47:44;92721.91;;;-144.48;35.31
4123;BME280;2075;51.062;6.920;2023-05-01T08:50:33;92758.47;;;-144.48;35.26
4123;BME280;2075;51.062;6.920;2023-05-01T08:53:21;92904.69;;;-144.48;36.24
4123;BME280;2075;51.062;6.920;2023-05-01T08:56:09;92894.53;;;-144.48;36.76
4123;BME280;2075;51.062;6.920;2023-05-01T08:58:57;92823.47;;;-144.48;36.47
4123;BME280;2075;51.062;6.920;2023-05-01T09:01:45;92853.94;;;-144.48;35.95
4123;BME280;2075;51.062;6.920;2023-05-01T09:04:31;92864.06;;;-144.48;36.39
4123;BME280;2075;51.062;6.920;2023-05-01T09:07:19;92784.88;;;-144.48;35.82
4123;BME280;2075;51.062;6.920;2023-05-01T09:10:05;93067.16;;;-144.48;36.10
4123;BME280;2075;51.062;6.920;2023-05-01T09:12:54;92770.66;;;-144.48;35.96
4123;BME280;2075;51.062;6.920;2023-05-01T09:15:40;92811.28;;;-144.48;35.57
4123;BME280;2075;51.062;6.920;2023-05-01T09:18:26;92738.16;;;-144.48;35.79
4123;BME280;2075;51.062;6.920;2023-05-01T09:21:11;92768.63;;;-144.48;35.73
4123;BME280;2075;51.062;6.920;2023-05-01T09:23:58;92713.78;;;-144.48;35.22
4123;BME280;2075;51.062;6.920;2023-05-01T09:26:44;92681.31;;;-144.48;34.97
4123;BME280;2075;51.062;6.920;2023-05-01T09:29:37;92677.25;;;-144.48;35.22
4123;BME280;2075;51.062;6.920;2023-05-01T09:32:24;92654.91;;;-144.48;34.61
4123;BME280;2075;51.062;6.920;2023-05-01T09:35:12;92839.72;;;-144.48;36.22
4123;BME280;2075;51.062;6.920;2023-05-01T09:37:58;92758.47;;;-144.48;35.84
4123;BME280;2075;51.062;6.920;2023-05-01T09:40:44;92868.13;;;-144.48;35.16
4123;BME280;2075;51.062;6.920;2023-05-01T09:43:30;92681.31;;;-144.48;35.25
4123;BME280;2075;51.062;6.920;2023-05-01T09:46:16;92652.88;;;-144.48;35.27
4123;BME280;2075;51.062;6.920;2023-05-01T09:49:01;92600.06;;;-144.48;34.34
4123;BME280;2075;51.062;6.920;2023-05-01T09:51:48;92598.03;;;-144.48;34.63
4123;BME280;2075;51.062;6.920;2023-05-01T09:54:34;92636.63;;;-144.48;34.66
4123;BME280;2075;51.062;6.920;2023-05-01T09:57:36;92510.72;;;-144.48;34.23
4123;BME280;2075;51.062;6.920;2023-05-01T10:00:22;92661.00;;;-144.48;34.82
4123;BME280;2075;51.062;6.920;2023-05-01T10:03:12;92774.72;;;-144.48;35.62
4123;BME280;2075;51.062;6.920;2023-05-01T10:05:59;92746.28;;;-144.48;35.14
4123;BME280;2075;51.062;6.920;2023-05-01T10:08:47;92622.41;;;-144.48;34.82
4123;BME280;2075;51.062;6.920;2023-05-01T10:11:46;92717.84;;;-144.48;35.49
4123;BME280;2075;51.062;6.920;2023-05-01T10:14:35;92697.56;;;-144.48;35.45
4123;BME280;2075;51.062;6.920;2023-05-01T10:17:33;92764.56;;;-144.48;35.45
4123;BME280;2075;51.062;6.920;2023-05-01T10:20:18;92585.88;;;-144.48;35.69
4123;BME280;2075;51.062;6.920;2023-05-01T10:23:04;92573.69;;;-144.48;35.11
4123;BME280;2075;51.062;6.920;2023-05-01T10:25:51;92701.63;;;-144.48;35.29
4123;BME280;2075;51.062;6.920;2023-05-01T10:28:37;92614.28;;;-144.48;35.02
4123;BME280;2075;51.062;6.920;2023-05-01T10:31:24;92648.81;;;-144.48;34.87
4123;BME280;2075;51.062;6.920;2023-05-01T10:34:14;92594.00;;;-144.48;34.76
4123;BME280;2075;51.062;6.920;2023-05-01T10:37:03;92522.91;;;-144.48;34.18
4123;BME280;2075;51.062;6.920;2023-05-01T10:39:51;92524.94;;;-144.48;34.67
4123;BME280;2075;51.062;6.920;2023-05-01T10:43:18;92594.00;;;-144.48;34.95
4123;BME280;2075;51.062;6.920;2023-05-01T10:46:27;92616.31;;;-144.48;34.33
4123;BME280;2075;51.062;6.920;2023-05-01T10:49:13;92685.38;;;-144.48;34.95
4123;BME280;2075;51.062;6.920;2023-05-01T10:52:00;92656.94;;;-144.48;34.74
4123;BME280;2075;51.062;6.920;2023-05-01T10:54:46;92608.19;;;-144.48;34.21
4123;BME280;2075;51.062;6.920;2023-05-01T10:57:42;92575.72;;;-144.48;34.07
4123;BME280;2075;51.062;6.920;2023-05-01T11:00:29;92539.16;;;-144.48;33.99
4123;BME280;2075;51.062;6.920;2023-05-01T11:03:35;92520.88;;;-144.48;34.17
4123;BME280;2075;51.062;6.920;2023-05-01T11:06:23;92490.41;;;-144.48;33.85
4123;BME280;2075;51.062;6.920;2023-05-01T11:09:35;92510.72;;;-144.48;34.05
4123;BME280;2075;51.062;6.920;2023-05-01T11:12:50;92551.34;;;-144.48;33.97
4123;BME280;2075;51.062;6.920;2023-05-01T11:15:35;92561.50;;;-144.48;33.97
4123;BME280;2075;51.062;6.920;2023-05-01T11:18:45;92587.91;;;-144.48;34.10
4123;BME280;2075;51.062;6.920;2023-05-01T11:21:31;92547.28;;;-144.48;33.48
4123;BME280;2075;51.062;6.920;2023-05-01T11:24:17;92468.09;;;-144.48;33.06
4123;BME280;2075;51.062;6.920;2023-05-01T11:27:03;92421.38;;;-144.48;32.60
4123;BME280;2075;51.062;6.920;2023-05-01T11:29:49;92311.72;;;-144.48;32.25
4123;BME280;2075;51.062;6.920;2023-05-01T11:32:34;92232.53;;;-144.48;31.80
4123;BME280;2075;51.062;6.920;2023-05-01T11:35:23;92250.81;;;-144.48;31.57
4123;BME280;2075;51.062;6.920;2023-05-01T11:38:15;92039.66;;;-144.48;31.04
4123;BME280;2075;51.062;6.920;2023-05-01T11:41:02;92017.31;;;-144.48;30.69
4123;BME280;2075;51.062;6.920;2023-05-01T11:43:49;91966.56;;;-144.48;30.24
4123;BME280;2075;51.062;6.920;2023-05-01T11:46:35;92047.78;;;-144.48;31.16
4123;BME280;2075;51.062;6.920;2023-05-01T11:49:25;92039.66;;;-144.48;30.76
4123;BME280;2075;51.062;6.920;2023-05-01T11:52:15;92021.38;;;-144.48;30.97
4123;BME280;2075;51.062;6.920;2023-05-01T11:55:00;92045.75;;;-144.48;30.58
4123;BME280;2075;51.062;6.920;2023-05-01T11:57:47;91962.50;;;-144.48;30.43
4123;BME280;2075;51.062;6.920;2023-05-01T12:00:34;91869.09;;;-144.48;29.45
4123;BME280;2075;51.062;6.920;2023-05-01T12:03:21;92021.38;;;-144.48;29.71
4123;BME280;2075;51.062;6.920;2023-05-01T12:06:07;91980.78;;;-144.48;30.18
4123;BME280;2075;51.062;6.920;2023-05-01T12:08:55;91976.72;;;-144.48;30.16
4123;BME280;2075;51.062;6.920;2023-05-01T12:11:41;91972.66;;;-144.48;29.94
4123;BME280;2075;51.062;6.920;2023-05-01T12:14:26;91968.59;;;-144.48;30.10
4123;BME280;2075;51.062;6.920;2023-05-01T12:17:12;92021.38;;;-144.48;30.56
4123;BME280;2075;51.062;6.920;2023-05-01T12:19:57;92078.22;;;-144.48;30.25
4123;BME280;2075;51.062;6.920;2023-05-01T12:22:49;92163.50;;;-144.48;30.08
4123;BME280;2075;51.062;6.920;2023-05-01T12:25:36;92238.63;;;-144.48;31.38
4123;BME280;2075;51.062;6.920;2023-05-01T12:28:22;92218.31;;;-144.48;31.77
4123;BME280;2075;51.062;6.920;2023-05-01T12:31:10;92206.16;;;-144.48;31.30
4123;BME280;2075;51.062;6.920;2023-05-01T12:33:57;92275.19;;;-144.48;31.49
4123;BME280;2075;51.062;6.920;2023-05-01T12:36:52;92305.63;;;-144.48;32.01
4123;BME280;2075;51.062;6.920;2023-05-01T12:39:39;92531.03;;;-144.48;34.29
4123;BME280;2075;51.062;6.920;2023-05-01T12:42:27;92384.84;;;-144.48;34.90
4123;BME280;2075;51.062;6.920;2023-05-01T12:45:13;92506.66;;;-144.48;34.82
4123;BME280;2075;51.062;6.920;2023-05-01T12:47:59;92644.75;;;-144.48;36.03
4123;BME280;2075;51.062;6.920;2023-05-01T12:50:44;92691.47;;;-144.48;35.60
4123;BME280;2075;51.062;6.920;2023-05-01T12:53:29;92654.91;;;-144.48;34.87
4123;BME280;2075;51.062;6.920;2023-05-01T12:56:22;92754.41;;;-144.48;36.07
4123;BME280;2075;51.062;6.920;2023-05-01T12:59:19;92693.50;;;-144.48;36.51
4123;BME280;2075;51.062;6.920;2023-05-01T13:02:06;92725.97;;;-144.48;38.13
4123;BME280;2075;51.062;6.920;2023-05-01T13:05:04;92813.31;;;-144.48;36.23
4123;BME280;2075;51.062;6.920;2023-05-01T13:07:50;92624.44;;;-144.48;36.25
4123;BME280;2075;51.062;6.920;2023-05-01T13:10:36;92425.44;;;-144.48;34.70
4123;BME280;2075;51.062;6.920;2023-05-01T13:13:26;92551.34;;;-144.48;35.55
4123;BME280;2075;51.062;6.920;2023-05-01T13:16:14;92490.41;;;-144.48;34.71
4123;BME280;2075;51.062;6.920;2023-05-01T13:19:00;92567.59;;;-144.48;33.93
4123;BME280;2075;51.062;6.920;2023-05-01T13:21:48;92596.00;;;-144.48;34.42
4123;BME280;2075;51.062;6.920;2023-05-01T13:24:38;92622.41;;;-144.48;35.09
4123;BME280;2075;51.062;6.920;2023-05-01T13:27:24;92713.78;;;-144.48;34.56
4123;BME280;2075;51.062;6.920;2023-05-01T13:30:11;92677.25;;;-144.48;35.26
4123;BME280;2075;51.062;6.920;2023-05-01T13:32:58;92701.63;;;-144.48;35.05
4123;BME280;2075;51.062;6.920;2023-05-01T13:35:43;92703.66;;;-144.48;34.85
4123;BME280;2075;51.062;6.920;2023-05-01T13:38:29;92703.66;;;-144.48;35.45
4123;BME280;2075;51.062;6.920;2023-05-01T13:41:20;92679.28;;;-144.48;35.09
4123;BME280;2075;51.062;6.920;2023-05-01T13:44:05;92744.25;;;-144.48;35.33
4123;BME280;2075;51.062;6.920;2023-05-01T13:46:51;92689.44;;;-144.48;35.63
4123;BME280;2075;51.062;6.920;2023-05-01T13:49:40;92766.59;;;-144.48;35.80
4123;BME280;2075;51.062;6.920;2023-05-01T13:52:25;92803.16;;;-144.48;35.70
4123;BME280;2075;51.062;6.920;2023-05-01T13:55:15;92884.38;;;-144.48;35.84
4123;BME280;2075;51.062;6.920;2023-05-01T13:58:02;92892.50;;;-144.48;37.11
4123;BME280;2075;51.062;6.920;2023-05-01T14:00:47;92914.84;;;-144.48;36.80
4123;BME280;2075;51.062;6.920;2023-05-01T14:03:40;92953.44;;;-144.48;37.14
4123;BME280;2075;51.062;6.920;2023-05-01T14:06:27;92981.88;;;-144.48;37.59
4123;BME280;2075;51.062;6.920;2023-05-01T14:09:15;93073.25;;;-144.48;39.32
4123;BME280;2075;51.062;6.920;2023-05-01T14:12:01;92872.19;;;-144.48;45.03
4123;BME280;2075;51.062;6.920;2023-05-01T14:14:47;93117.94;;;-144.48;49.19
4123;BME280;2075;51.062;6.920;2023-05-01T14:17:34;93237.78;;;-144.48;48.58
4123;BME280;2075;51.062;6.920;2023-05-01T14:20:24;93310.88;;;-144.48;49.83
4123;BME280;2075;51.062;6.920;2023-05-01T14:23:13;93388.06;;;-144.48;53.79
4123;BME280;2075;51.062;6.920;2023-05-01T14:26:00;93483.53;;;-144.48;57.87
4123;BME280;2075;51.062;6.920;2023-05-01T14:28:46;93753.69;;;-144.48;59.44
4123;BME280;2075;51.062;6.920;2023-05-01T14:31:32;93711.03;;;-144.48;68.60
4123;BME280;2075;51.062;6.920;2023-05-01T14:34:18;93747.59;;;-144.48;67.67
4123;BME280;2075;51.062;6.920;2023-05-01T14:37:04;93739.47;;;-144.48;66.42
4123;BME280;2075;51.062;6.920;2023-05-01T14:39:51;93589.16;;;-144.48;80.16
4123;BME280;2075;51.062;6.920;2023-05-01T14:42:40;93812.59;;;-144.48;79.91
4123;BME280;2075;51.062;6.920;2023-05-01T14:45:26;93818.69;;;-144.48;86.71
4123;BME280;2075;51.062;6.920;2023-05-01T14:48:20;93810.56;;;-144.48;87.58
4123;BME280;2075;51.062;6.920;2023-05-01T14:51:09;93597.28;;;-144.48;95.96